Time;durP1;ratioP1;P1;durP2;ratioP2;P2;SDS_P1;SDS_P2;PMS_P1;PMS_P2;Temp;Humidity;BMP_temperature;BMP_pressure;BME280_temperature;BME280_humidity;BME280_pressure;Samples;Min_cycle;Max_cycle;Signal;HPM_P1;HPM_P2
2022/03/24 00:01:39;;;;;;;26.80;8.13;;;;;;;;;;10458942;28;20404;-74
2022/03/24 00:06:43;;;;;;;25.00;7.80;;;;;;;;;;10467286;28;20071;-75
2022/03/24 00:11:47;;;;;;;;;;;;;;;;;;10458576;28;20399;-74
2022/03/24 00:16:50;;;;;;;19.20;7.53;;;;;;;;;;10456444;28;20389;-73
2022/03/24 00:21:56;;;;;;;23.98;7.95;;;;;;;;;;10463014;28;20152;-74
2022/03/24 00:26:59;;;;;;;23.92;7.45;;;;;;;;;;10458473;28;20041;-74
2022/03/24 00:32:02;;;;;;;23.75;7.70;;;;;;;;;;10471938;28;20362;-73
2022/03/24 00:37:06;;;;;;;23.90;7.90;;;;;;;;;;10456653;28;20052;-72
2022/03/24 00:42:11;;;;;;;21.73;7.18;;;;;;;;;;10461107;28;20067;-72
2022/03/24 00:47:14;;;;;;;22.40;6.85;;;;;;;;;;10474097;28;20102;-71
2022/03/24 00:52:19;;;;;;;20.98;7.18;;;;;;;;;;10465311;28;20709;-75
2022/03/24 00:57:22;;;;;;;18.02;6.90;;;;;;;;;;10472458;28;20044;-75
2022/03/24 01:02:27;;;;;;;18.63;6.97;;;;;;;;;;10461295;28;20136;-74
2022/03/24 01:07:31;;;;;;;16.20;6.68;;;;;;;;;;10464195;28;20033;-75
2022/03/24 01:12:34;;;;;;;;;;;;;;;;;;10465444;28;20512;-72
2022/03/24 01:17:38;;;;;;;11.93;5.10;;;;;;;;;;10502539;22;20460;-73
2022/03/24 01:22:42;;;;;;;18.73;6.70;;;;;;;;;;10493161;28;20104;-72
2022/03/24 01:27:44;;;;;;;;;;;;;;;;;;10494927;28;20036;-72
2022/03/24 01:32:47;;;;;;;17.20;5.70;;;;;;;;;;10502737;28;19921;-73
2022/03/24 01:37:52;;;;;;;14.23;5.95;;;;;;;;;;10491116;28;20028;-72
2022/03/24 01:42:55;;;;;;;;;;;;;;;;;;10511259;28;20122;-71
2022/03/24 01:47:58;;;;;;;11.60;4.75;;;;;;;;;;10506528;28;20291;-73
2022/03/24 01:53:04;;;;;;;9.20;3.08;;;;;;;;;;10509766;28;20040;-72
2022/03/24 01:58:08;;;;;;;10.32;3.40;;;;;;;;;;10490769;28;20043;-73
2022/03/24 02:03:14;;;;;;;10.97;3.97;;;;;;;;;;10493813;28;20440;-72
2022/03/24 02:08:18;;;;;;;9.87;4.40;;;;;;;;;;10493656;28;20052;-72
2022/03/24 02:13:22;;;;;;;;;;;;;;;;;;10517851;28;20060;-71
2022/03/24 02:18:25;;;;;;;11.82;3.72;;;;;;;;;;10495570;28;19951;-72
2022/03/24 02:23:29;;;;;;;9.27;3.73;;;;;;;;;;10515930;28;20094;-72
2022/03/24 02:28:32;;;;;;;;;;;;;;;;;;10498659;28;20559;-72
2022/03/24 02:33:35;;;;;;;11.00;4.13;;;;;;;;;;10495699;28;20345;-72
2022/03/24 02:38:39;;;;;;;8.95;3.67;;;;;;;;;;10490592;28;20040;-73
2022/03/24 02:43:42;;;;;;;;;;;;;;;;;;10515546;28;20550;-72
2022/03/24 02:48:45;;;;;;;11.43;4.47;;;;;;;;;;10498494;28;20389;-72
2022/03/24 02:53:49;;;;;;;8.90;3.87;;;;;;;;;;10508377;28;20086;-72
2022/03/24 02:58:52;;;;;;;;;;;;;;;;;;10511979;28;20110;-73
2022/03/24 03:03:55;;;;;;;6.93;2.47;;;;;;;;;;10493773;28;19921;-73
2022/03/24 03:09:02;;;;;;;11.33;4.57;;;;;;;;;;10492122;28;20033;-71
2022/03/24 03:14:06;;;;;;;9.63;4.40;;;;;;;;;;10499291;28;20047;-73
2022/03/24 03:19:08;;;;;;;9.50;3.90;;;;;;;;;;10497653;28;20404;-72
2022/03/24 03:24:13;;;;;;;10.87;4.40;;;;;;;;;;10512801;28;20143;-73
2022/03/24 03:29:16;;;;;;;;;;;;;;;;;;10513805;28;20090;-71
2022/03/24 03:34:24;;;;;;;11.80;3.80;;;;;;;;;;10501345;28;20410;-72
2022/03/24 03:39:28;;;;;;;10.77;4.43;;;;;;;;;;10494506;28;20036;-72
2022/03/24 03:44:31;;;;;;;9.73;4.03;;;;;;;;;;10520852;28;20067;-72
2022/03/24 03:49:34;;;;;;;12.70;4.20;;;;;;;;;;10516514;28;21560;-73
2022/03/24 03:54:59;;;;;;;8.43;3.47;;;;;;;;;;10497476;28;20408;-73
2022/03/24 04:00:52;;;;;;;;;;;;;;;;;;10515191;28;20041;-72
2022/03/24 04:05:25;;;;;;;11.17;3.57;;;;;;;;;;10494803;28;19947;-73
2022/03/24 04:10:32;;;;;;;17.17;3.90;;;;;;;;;;10515325;28;20036;-72
2022/03/24 04:19:53;;;;;;;3.10;2.03;;;;;;;;;;10596418;27;20409;-72
2022/03/24 04:24:56;;;;;;;;;;;;;;;;;;10597812;28;20065;-72
2022/03/24 04:29:59;;;;;;;11.73;4.13;;;;;;;;;;10570171;22;19970;-74
2022/03/24 04:35:04;;;;;;;12.30;4.37;;;;;;;;;;10496119;28;20060;-74
2022/03/24 04:40:07;;;;;;;9.20;3.70;;;;;;;;;;10521064;22;20048;-75
2022/03/24 04:45:11;;;;;;;11.65;3.95;;;;;;;;;;10512915;28;20485;-73
2022/03/24 04:50:17;;;;;;;7.20;3.37;;;;;;;;;;10507940;28;20219;-73
2022/03/24 04:55:21;;;;;;;8.67;3.50;;;;;;;;;;10511677;28;20952;-74
2022/03/24 05:00:24;;;;;;;9.80;3.60;;;;;;;;;;10509059;28;20054;-76
2022/03/24 05:05:28;;;;;;;15.40;3.47;;;;;;;;;;10512527;28;20048;-75
2022/03/24 05:10:31;;;;;;;2.80;1.80;;;;;;;;;;10512886;28;20052;-75
2022/03/24 05:15:34;;;;;;;9.63;3.80;;;;;;;;;;10513150;28;20031;-73
2022/03/24 05:20:38;;;;;;;9.83;3.57;;;;;;;;;;10509006;28;20459;-77
2022/03/24 05:25:42;;;;;;;7.83;3.47;;;;;;;;;;10506475;28;20135;-75
2022/03/24 05:30:46;;;;;;;9.32;4.15;;;;;;;;;;10484805;28;20048;-73
2022/03/24 05:35:49;;;;;;;;;;;;;;;;;;10479936;28;20029;-71
2022/03/24 05:40:54;;;;;;;9.77;2.77;;;;;;;;;;10481550;28;19943;-73
2022/03/24 05:45:57;;;;;;;6.80;2.70;;;;;;;;;;10482728;28;20036;-74
2022/03/24 05:51:00;;;;;;;6.27;2.73;;;;;;;;;;10480777;28;20306;-72
2022/03/24 05:56:05;;;;;;;6.70;2.58;;;;;;;;;;10483870;28;20096;-75
2022/03/24 06:01:09;;;;;;;9.82;3.40;;;;;;;;;;10479307;28;20040;-73
2022/03/24 06:06:12;;;;;;;9.50;3.70;;;;;;;;;;10481720;28;20054;-71
2022/03/24 06:11:17;;;;;;;9.85;3.30;;;;;;;;;;10478857;28;20759;-72
2022/03/24 06:16:21;;;;;;;;;;;;;;;;;;10475117;28;20620;-73
2022/03/24 06:21:24;;;;;;;;;;;;;;;;;;10483591;28;19928;-72
2022/03/24 06:26:29;;;;;;;8.02;3.17;;;;;;;;;;10478396;28;20011;-74
2022/03/24 06:31:32;;;;;;;7.15;3.53;;;;;;;;;;10479454;28;20392;-73
2022/03/24 06:36:36;;;;;;;13.43;3.83;;;;;;;;;;10485030;28;20464;-71
2022/03/24 06:41:46;;;;;;;9.00;3.60;;;;;;;;;;10476668;28;20044;-74
2022/03/24 06:46:53;;;;;;;11.18;4.35;;;;;;;;;;10475582;28;20124;-74
2022/03/24 06:51:56;;;;;;;11.93;5.23;;;;;;;;;;10479359;28;20461;-75
2022/03/24 06:57:01;;;;;;;9.82;4.35;;;;;;;;;;10480489;28;20094;-74
2022/03/24 07:02:06;;;;;;;10.20;4.65;;;;;;;;;;10478586;28;20192;-73
2022/03/24 07:07:09;;;;;;;10.18;5.18;;;;;;;;;;10479568;28;20032;-74
2022/03/24 07:12:13;;;;;;;13.00;5.10;;;;;;;;;;10476633;28;20032;-72
2022/03/24 07:17:17;;;;;;;9.82;5.05;;;;;;;;;;10472895;28;20032;-74
2022/03/24 07:22:22;;;;;;;10.70;5.50;;;;;;;;;;10479136;28;20071;-71
2022/03/24 07:27:26;;;;;;;9.65;5.53;;;;;;;;;;10477976;28;20056;-73
2022/03/24 07:32:34;;;;;;;13.13;6.13;;;;;;;;;;10480064;28;20052;-73
2022/03/24 07:37:37;;;;;;;11.18;6.43;;;;;;;;;;10483159;28;20145;-75
2022/03/24 07:42:42;;;;;;;13.60;6.82;;;;;;;;;;10479021;28;20047;-74
2022/03/24 07:48:06;;;;;;;21.52;8.32;;;;;;;;;;10489486;28;20036;-74
2022/03/24 07:53:32;;;;;;;13.98;6.72;;;;;;;;;;10471265;28;20127;-74
2022/03/24 07:58:38;;;;;;;13.23;6.25;;;;;;;;;;10457125;28;20090;-74
2022/03/24 08:03:43;;;;;;;11.73;6.97;;;;;;;;;;10472116;28;20055;-75
2022/03/24 08:08:49;;;;;;;12.43;7.28;;;;;;;;;;10475868;28;20127;-74
2022/03/24 08:13:55;;;;;;;11.90;7.18;;;;;;;;;;10479774;28;20128;-74
2022/03/24 08:18:58;;;;;;;16.73;7.85;;;;;;;;;;10476244;28;20053;-73
2022/03/24 08:24:02;;;;;;;15.65;8.18;;;;;;;;;;10477266;28;20364;-74
2022/03/24 08:29:07;;;;;;;11.68;6.82;;;;;;;;;;10470237;28;20495;-73
2022/03/24 08:34:14;;;;;;;11.95;7.60;;;;;;;;;;10467807;28;20123;-73
2022/03/24 08:39:17;;;;;;;12.10;7.63;;;;;;;;;;10475955;28;20094;-73
2022/03/24 08:44:21;;;;;;;12.82;8.85;;;;;;;;;;10487664;28;20590;-74
2022/03/24 08:49:24;;;;;;;16.58;10.82;;;;;;;;;;10474142;28;20072;-73
2022/03/24 08:54:27;;;;;;;14.55;9.40;;;;;;;;;;10475449;28;20041;-74
2022/03/24 08:59:31;;;;;;;14.15;9.43;;;;;;;;;;10475588;28;20040;-74
2022/03/24 09:04:34;;;;;;;11.75;9.27;;;;;;;;;;10482555;28;20041;-75
2022/03/24 09:09:57;;;;;;;16.67;9.52;;;;;;;;;;10476283;28;20060;-73
2022/03/24 09:15:05;;;;;;;16.58;9.45;;;;;;;;;;10483515;28;20033;-73
2022/03/24 09:20:09;;;;;;;14.02;9.43;;;;;;;;;;10482921;28;20032;-73
2022/03/24 09:25:14;;;;;;;12.07;8.75;;;;;;;;;;10483328;28;20135;-75
2022/03/24 09:30:20;;;;;;;12.50;9.35;;;;;;;;;;10474377;28;20048;-73
2022/03/24 09:35:23;;;;;;;12.15;9.40;;;;;;;;;;10483085;28;20091;-78
2022/03/24 09:40:26;;;;;;;11.55;9.50;;;;;;;;;;10480858;28;20697;-76
2022/03/24 09:45:31;;;;;;;12.93;9.27;;;;;;;;;;10482753;28;20102;-74
2022/03/24 09:50:34;;;;;;;16.48;12.70;;;;;;;;;;10478783;28;20033;-74
2022/03/24 09:55:38;;;;;;;17.25;11.00;;;;;;;;;;10481713;28;20055;-73
2022/03/24 10:00:44;;;;;;;14.20;10.20;;;;;;;;;;10486953;28;20028;-74
2022/03/24 10:05:57;;;;;;;15.40;10.38;;;;;;;;;;10479959;28;20040;-75
2022/03/24 10:11:01;;;;;;;18.95;10.27;;;;;;;;;;10475101;28;20102;-75
2022/03/24 10:16:05;;;;;;;18.08;11.27;;;;;;;;;;10478017;28;20040;-74
2022/03/24 10:21:12;;;;;;;14.25;10.65;;;;;;;;;;10476456;28;20493;-75
2022/03/24 10:26:16;;;;;;;14.32;11.13;;;;;;;;;;10480420;28;20117;-75
2022/03/24 10:31:20;;;;;;;14.27;10.90;;;;;;;;;;10480542;28;20132;-74
2022/03/24 10:36:26;;;;;;;13.23;11.20;;;;;;;;;;10481708;28;20527;-76
2022/03/24 10:41:30;;;;;;;18.38;11.45;;;;;;;;;;10481274;28;20501;-81
2022/03/24 10:46:35;;;;;;;15.45;10.40;;;;;;;;;;10473976;28;20032;-75
2022/03/24 10:51:38;;;;;;;12.43;10.23;;;;;;;;;;10480281;28;20028;-76
2022/03/24 10:56:46;;;;;;;17.88;10.98;;;;;;;;;;10477891;28;20088;-75
2022/03/24 11:01:50;;;;;;;11.88;10.02;;;;;;;;;;10478057;28;20079;-73
2022/03/24 11:06:54;;;;;;;12.75;9.07;;;;;;;;;;10494460;28;20037;-75
2022/03/24 11:12:21;;;;;;;12.35;9.85;;;;;;;;;;10479597;28;20033;-76
2022/03/24 11:17:26;;;;;;;11.63;9.77;;;;;;;;;;10473378;28;20043;-75
2022/03/24 11:22:40;;;;;;;15.25;10.27;;;;;;;;;;10479816;28;20040;-74
2022/03/24 11:27:44;;;;;;;15.50;10.95;;;;;;;;;;10479692;28;20550;-73
2022/03/24 11:32:50;;;;;;;12.48;10.25;;;;;;;;;;10491605;28;20150;-71
2022/03/24 11:37:56;;;;;;;12.35;10.48;;;;;;;;;;10481455;28;20048;-71
2022/03/24 11:43:00;;;;;;;14.88;10.90;;;;;;;;;;10480362;28;20048;-73
2022/03/24 11:48:06;;;;;;;11.77;8.63;;;;;;;;;;10478741;28;20045;-72
2022/03/24 11:53:17;;;;;;;12.55;9.40;;;;;;;;;;10497245;28;20109;-73
2022/03/24 11:58:21;;;;;;;14.27;10.18;;;;;;;;;;10474898;28;20154;-73
2022/03/24 12:03:42;;;;;;;13.13;10.00;;;;;;;;;;10474078;28;20514;-71
2022/03/24 12:08:52;;;;;;;16.75;10.98;;;;;;;;;;10474619;28;20037;-71
2022/03/24 12:13:55;;;;;;;11.75;9.13;;;;;;;;;;10479428;28;20044;-72
2022/03/24 12:19:00;;;;;;;12.30;9.68;;;;;;;;;;10473816;28;20106;-75
2022/03/24 12:24:07;;;;;;;17.45;11.02;;;;;;;;;;10477481;28;20045;-71
2022/03/24 12:29:17;;;;;;;13.88;10.10;;;;;;;;;;10474336;28;20157;-73
2022/03/24 12:34:22;;;;;;;17.92;11.57;;;;;;;;;;10467680;28;20064;-71
2022/03/24 12:39:34;;;;;;;13.98;10.27;;;;;;;;;;10477938;28;20036;-73
2022/03/24 12:44:54;;;;;;;13.68;9.65;;;;;;;;;;10482630;28;20045;-70
2022/03/24 12:49:57;;;;;;;13.45;9.20;;;;;;;;;;10485951;28;20120;-73
2022/03/24 12:55:02;;;;;;;13.40;9.50;;;;;;;;;;10483534;28;20344;-72
2022/03/24 13:00:07;;;;;;;16.60;11.45;;;;;;;;;;10483567;28;20033;-71
2022/03/24 13:05:12;;;;;;;17.00;10.93;;;;;;;;;;10483110;28;20496;-70
2022/03/24 13:10:17;;;;;;;17.15;9.90;;;;;;;;;;10483369;28;20045;-71
2022/03/24 13:15:22;;;;;;;13.27;9.48;;;;;;;;;;10478732;28;20040;-69
2022/03/24 13:20:26;;;;;;;16.13;10.15;;;;;;;;;;10483489;28;20044;-72
2022/03/24 13:25:31;;;;;;;16.27;8.90;;;;;;;;;;10485457;28;20044;-70
2022/03/24 13:30:35;;;;;;;12.13;8.60;;;;;;;;;;10480080;28;20064;-71
2022/03/24 13:35:39;;;;;;;14.45;8.38;;;;;;;;;;10486140;28;20497;-71
2022/03/24 13:40:46;;;;;;;14.20;8.73;;;;;;;;;;10484845;28;20590;-70
2022/03/24 13:45:49;;;;;;;14.32;10.05;;;;;;;;;;10479144;28;20048;-69
2022/03/24 13:50:58;;;;;;;12.88;8.52;;;;;;;;;;10480058;28;20032;-71
2022/03/24 13:56:06;;;;;;;14.23;8.15;;;;;;;;;;10479657;28;20085;-70
2022/03/24 14:01:10;;;;;;;13.07;8.85;;;;;;;;;;10478136;28;20458;-69
2022/03/24 14:06:13;;;;;;;13.27;8.02;;;;;;;;;;10478770;28;20048;-70
2022/03/24 14:11:20;;;;;;;12.38;8.07;;;;;;;;;;10477118;28;20036;-73
2022/03/24 14:16:25;;;;;;;14.93;8.30;;;;;;;;;;10479018;28;20048;-72
2022/03/24 14:21:38;;;;;;;13.77;8.57;;;;;;;;;;10482140;28;20056;-71
2022/03/24 14:26:57;;;;;;;18.08;8.43;;;;;;;;;;10486886;28;20047;-70
2022/03/24 14:32:09;;;;;;;14.55;8.02;;;;;;;;;;10482980;28;20795;-71
2022/03/24 14:37:14;;;;;;;13.43;8.23;;;;;;;;;;10484942;28;20127;-72
2022/03/24 14:42:20;;;;;;;12.35;7.53;;;;;;;;;;10486203;28;20052;-71
2022/03/24 14:47:23;;;;;;;12.35;7.85;;;;;;;;;;10476459;28;20318;-69
2022/03/24 14:52:26;;;;;;;12.15;7.32;;;;;;;;;;10481188;28;20040;-72
2022/03/24 14:57:31;;;;;;;16.20;8.40;;;;;;;;;;10482468;28;20476;-70
2022/03/24 15:02:35;;;;;;;14.27;7.20;;;;;;;;;;10489167;28;20501;-72
2022/03/24 15:07:38;;;;;;;11.13;6.30;;;;;;;;;;10483928;28;20041;-71
2022/03/24 15:12:43;;;;;;;13.38;6.90;;;;;;;;;;10482794;28;20091;-70
2022/03/24 15:17:47;;;;;;;13.30;6.35;;;;;;;;;;10479734;28;20052;-74
2022/03/24 15:22:50;;;;;;;13.32;7.18;;;;;;;;;;10487556;28;20411;-69
2022/03/24 15:27:54;;;;;;;14.18;7.65;;;;;;;;;;10478180;28;20055;-70
2022/03/24 15:32:57;;;;;;;13.68;7.00;;;;;;;;;;10471228;28;20032;-69
2022/03/24 15:38:01;;;;;;;14.20;7.82;;;;;;;;;;10475943;28;20046;-71
2022/03/24 15:43:06;;;;;;;12.90;7.40;;;;;;;;;;10478271;28;20132;-68
2022/03/24 15:48:09;;;;;;;13.05;7.10;;;;;;;;;;10478109;28;20044;-71
2022/03/24 15:53:12;;;;;;;13.07;7.38;;;;;;;;;;10477511;28;20032;-71
2022/03/24 15:58:18;;;;;;;11.77;6.65;;;;;;;;;;10470059;28;20511;-69
2022/03/24 16:03:21;;;;;;;13.32;6.75;;;;;;;;;;10480595;28;20040;-69
2022/03/24 16:08:24;;;;;;;;;;;;;;;;;;10479646;28;20040;-70
2022/03/24 16:13:28;;;;;;;13.33;7.30;;;;;;;;;;10473262;28;20273;-70
2022/03/24 16:18:32;;;;;;;13.65;6.80;;;;;;;;;;10471089;28;20131;-69
2022/03/24 16:23:34;;;;;;;14.07;7.13;;;;;;;;;;10473092;28;20044;-68
2022/03/24 16:28:37;;;;;;;;;;;;;;;;;;10488264;28;20069;-71
2022/03/24 16:33:42;;;;;;;17.55;7.57;;;;;;;;;;10474032;28;19947;-71
2022/03/24 16:38:46;;;;;;;14.32;6.47;;;;;;;;;;10477472;28;20123;-70
2022/03/24 16:43:49;;;;;;;21.92;8.10;;;;;;;;;;10476459;28;20530;-70
2022/03/24 16:48:53;;;;;;;11.43;6.32;;;;;;;;;;10478176;28;20032;-70
2022/03/24 16:53:56;;;;;;;13.85;6.78;;;;;;;;;;10477637;28;20039;-70
2022/03/24 16:58:59;;;;;;;12.57;6.18;;;;;;;;;;10473537;28;20059;-72
2022/03/24 17:04:04;;;;;;;13.48;6.20;;;;;;;;;;10462833;28;20048;-68
2022/03/24 17:09:08;;;;;;;15.23;7.20;;;;;;;;;;10468160;28;20143;-70
2022/03/24 17:14:11;;;;;;;13.05;6.47;;;;;;;;;;10472213;28;20048;-69
2022/03/24 17:19:15;;;;;;;13.35;6.35;;;;;;;;;;10470791;28;20064;-70
2022/03/24 17:24:18;;;;;;;13.02;5.88;;;;;;;;;;10478765;28;20041;-68
2022/03/24 17:29:21;;;;;;;18.47;8.83;;;;;;;;;;10480613;28;20510;-69
2022/03/24 17:34:25;;;;;;;14.63;5.97;;;;;;;;;;10482503;28;20298;-68
2022/03/24 17:39:28;;;;;;;13.57;6.18;;;;;;;;;;10480325;28;20439;-68
2022/03/24 17:44:31;;;;;;;16.70;8.60;;;;;;;;;;10496164;28;20138;-71
2022/03/24 17:49:36;;;;;;;16.35;7.13;;;;;;;;;;10487850;28;20035;-73
2022/03/24 17:54:39;;;;;;;17.45;6.53;;;;;;;;;;10482828;28;20044;-73
2022/03/24 17:59:46;;;;;;;15.48;6.40;;;;;;;;;;10480426;28;20377;-75
2022/03/24 18:04:54;;;;;;;17.45;6.45;;;;;;;;;;10466865;28;20126;-71
2022/03/24 18:09:58;;;;;;;17.13;6.32;;;;;;;;;;10477955;28;20028;-73
2022/03/24 18:15:00;;;;;;;;;;;;;;;;;;10497524;28;20509;-72
2022/03/24 18:20:05;;;;;;;12.38;6.20;;;;;;;;;;10485263;28;19928;-75
2022/03/24 18:25:09;;;;;;;15.13;6.20;;;;;;;;;;10477708;28;20113;-74
2022/03/24 18:30:12;;;;;;;15.03;6.17;;;;;;;;;;10482573;28;20040;-74
2022/03/24 18:35:16;;;;;;;17.42;7.53;;;;;;;;;;10483110;28;20098;-71
2022/03/24 18:40:19;;;;;;;16.10;6.38;;;;;;;;;;10480609;28;20028;-72
2022/03/24 18:45:22;;;;;;;18.33;6.57;;;;;;;;;;10473067;28;20059;-75
2022/03/24 18:50:26;;;;;;;;;;;;;;;;;;10481324;28;20067;-74
2022/03/24 18:55:30;;;;;;;16.65;6.82;;;;;;;;;;10478630;28;19920;-74
2022/03/24 19:00:33;;;;;;;22.08;7.28;;;;;;;;;;10476304;28;20725;-73
2022/03/24 19:05:38;;;;;;;20.50;6.38;;;;;;;;;;10470629;28;20036;-74
2022/03/24 19:10:42;;;;;;;17.00;7.15;;;;;;;;;;10495934;28;20033;-71
2022/03/24 19:15:45;;;;;;;18.27;7.15;;;;;;;;;;10479544;28;20044;-75
2022/03/24 19:20:48;;;;;;;31.37;12.83;;;;;;;;;;10483332;28;20105;-72
2022/03/24 19:25:52;;;;;;;17.55;8.18;;;;;;;;;;10488109;28;20033;-71
2022/03/24 19:30:56;;;;;;;17.52;6.78;;;;;;;;;;10481804;28;20029;-74
2022/03/24 19:35:58;;;;;;;15.87;7.77;;;;;;;;;;10488939;28;20049;-75
2022/03/24 19:41:03;;;;;;;18.52;7.65;;;;;;;;;;10481582;28;20052;-76
2022/03/24 19:46:06;;;;;;;19.40;8.07;;;;;;;;;;10474411;28;20671;-71
2022/03/24 19:51:09;;;;;;;17.77;7.87;;;;;;;;;;10485368;28;20559;-72
2022/03/24 19:56:14;;;;;;;22.33;8.25;;;;;;;;;;10475367;28;20048;-72
2022/03/24 20:01:17;;;;;;;19.77;8.82;;;;;;;;;;10480972;28;20051;-74
2022/03/24 20:06:20;;;;;;;17.20;7.55;;;;;;;;;;10468001;22;20041;-72
2022/03/24 20:11:26;;;;;;;20.83;7.78;;;;;;;;;;10442360;28;20033;-73
2022/03/24 20:16:28;;;;;;;25.45;9.55;;;;;;;;;;10425260;28;20037;-73
2022/03/24 20:21:32;;;;;;;22.25;8.85;;;;;;;;;;10427056;28;20042;-74
2022/03/24 20:26:36;;;;;;;32.55;11.65;;;;;;;;;;10421029;28;20051;-72
2022/03/24 20:31:39;;;;;;;24.00;8.77;;;;;;;;;;10428154;28;20118;-72
2022/03/24 20:36:42;;;;;;;34.67;14.20;;;;;;;;;;10416541;28;20053;-71
2022/03/24 20:41:46;;;;;;;20.85;8.85;;;;;;;;;;10422320;28;20408;-72
2022/03/24 20:46:51;;;;;;;18.05;7.97;;;;;;;;;;10414793;28;20544;-72
2022/03/24 20:51:54;;;;;;;24.45;8.18;;;;;;;;;;10432026;28;20536;-71
2022/03/24 20:56:58;;;;;;;23.52;8.50;;;;;;;;;;10429844;28;20497;-72
2022/03/24 21:02:01;;;;;;;35.15;14.15;;;;;;;;;;10430881;28;20396;-72
2022/03/24 21:07:05;;;;;;;23.57;8.50;;;;;;;;;;10432178;28;20045;-72
2022/03/24 21:12:10;;;;;;;27.27;9.77;;;;;;;;;;10433072;28;20095;-73
2022/03/24 21:17:13;;;;;;;23.77;9.07;;;;;;;;;;10435534;28;20037;-70
2022/03/24 21:22:17;;;;;;;24.60;8.63;;;;;;;;;;10433955;28;20061;-72
2022/03/24 21:27:21;;;;;;;21.23;8.50;;;;;;;;;;10427528;28;20041;-71
2022/03/24 21:32:25;;;;;;;22.25;8.88;;;;;;;;;;10433900;28;20067;-72
2022/03/24 21:37:28;;;;;;;27.48;9.07;;;;;;;;;;10422459;28;20140;-72
2022/03/24 21:42:32;;;;;;;22.30;7.97;;;;;;;;;;10426884;28;20098;-73
2022/03/24 21:47:36;;;;;;;21.50;8.57;;;;;;;;;;10431187;28;20044;-71
2022/03/24 21:52:39;;;;;;;;;;;;;;;;;;10423195;28;20037;-70
2022/03/24 21:57:47;;;;;;;20.20;8.20;;;;;;;;;;10438362;28;19920;-71
2022/03/24 22:02:50;;;;;;;26.25;9.02;;;;;;;;;;10426908;28;20033;-72
2022/03/24 22:07:53;;;;;;;24.10;9.40;;;;;;;;;;10433267;28;20040;-71
2022/03/24 22:12:57;;;;;;;23.07;9.00;;;;;;;;;;10429176;28;20089;-72
2022/03/24 22:18:00;;;;;;;;;;;;;;;;;;10427200;28;20048;-71
2022/03/24 22:23:04;;;;;;;21.20;8.05;;;;;;;;;;10428938;28;20316;-70
2022/03/24 22:28:08;;;;;;;24.07;9.27;;;;;;;;;;10430320;28;20037;-72
2022/03/24 22:33:11;;;;;;;26.05;9.88;;;;;;;;;;10429244;28;20152;-71
2022/03/24 22:38:16;;;;;;;23.73;8.95;;;;;;;;;;10428692;28;20041;-72
2022/03/24 22:43:21;;;;;;;20.58;8.23;;;;;;;;;;10424446;28;20040;-70
2022/03/24 22:48:23;;;;;;;25.30;9.75;;;;;;;;;;10433534;28;20041;-72
2022/03/24 22:53:26;;;;;;;20.83;8.70;;;;;;;;;;10417442;28;20378;-72
2022/03/24 22:58:31;;;;;;;21.13;9.10;;;;;;;;;;10429031;28;20350;-72
2022/03/24 23:03:35;;;;;;;28.58;9.27;;;;;;;;;;10430413;28;20033;-72
2022/03/24 23:08:39;;;;;;;26.23;9.25;;;;;;;;;;10427980;28;20414;-72
2022/03/24 23:13:42;;;;;;;;;;;;;;;;;;10436515;28;20045;-73
2022/03/24 23:18:46;;;;;;;26.55;9.18;;;;;;;;;;10427907;28;19920;-73
2022/03/24 23:23:49;;;;;;;22.30;8.50;;;;;;;;;;10429486;28;20041;-74
2022/03/24 23:28:54;;;;;;;25.80;9.25;;;;;;;;;;10426276;28;20081;-74
2022/03/24 23:33:59;;;;;;;25.20;9.97;;;;;;;;;;10438034;28;20076;-74
2022/03/24 23:39:05;;;;;;;22.70;8.23;;;;;;;;;;10422019;28;20068;-73
2022/03/24 23:44:09;;;;;;;23.67;9.27;;;;;;;;;;10429888;28;20405;-73
2022/03/24 23:49:13;;;;;;;19.48;8.85;;;;;;;;;;10421419;28;20045;-72
2022/03/24 23:54:16;;;;;;;22.33;8.27;;;;;;;;;;10426147;28;20038;-73
2022/03/24 23:59:20;;;;;;;22.75;9.70;;;;;;;;;;10438360;28;20058;-73
